• Join FlightAware (Why Join?)
  • Login
  • US Flag 
08:31PM EDT


 

Airport Tracker/Info


-or-


 

Live Flight TrackerFlight Track Log ✈ EGF3900 ✈ 29-Apr-2013 ✈ KCOU - KORD

Flight Track Log - Related Links

Times and Time Zones

All times are in EDT time to prevent confusion due to time zone crossing. See the EGF3900 flight status page for this flight to view local times or setup timezone preferences in your user account.

Time Position Orientation Groundspeed Altitude Reporting Facility
EDT Latitude Longitude Course Direction KTS MPH feet Rate Location/Type
03:41PM 38.7894 -92.2247 46° Northeast 155 178 27,000  Level Kansas City Center
03:42PM 38.7922 -92.1719 86° East 240 276 4,000 -9,660 Descending Kansas City Center
03:43PM 38.8553 -92.1556 11° North 233 268 7,100 2,760 Climbing Kansas City Center
03:44PM 38.9228 -92.0869 38° Northeast 253 291 9,700 2,040 Climbing Kansas City Center
03:45PM 39.0088 -91.9494 46° Northeast  Level FlightAware Approximate
03:45PM 38.9850 -92.0094 44° Northeast 297 342 11,300  Level Kansas City Center
03:46PM 39.0536 -91.9214 45° Northeast 335 386 12,900 1,560 Climbing Kansas City Center
03:47PM 39.1261 -91.8306 44° Northeast 356 410 14,600 1,620 Climbing Kansas City Center
03:48PM 39.1992 -91.7361 45° Northeast 367 422 16,300 1,620 Climbing Kansas City Center
03:49PM 39.2708 -91.6464 44° Northeast 370 426 18,000 1,560 Climbing Kansas City Center
03:50PM 39.3469 -91.5478 45° Northeast 381 438 19,600 1,680 Climbing Kansas City Center
03:52PM 39.4389 -91.4308 44° Northeast 385 443 21,500 1,620 Climbing Kansas City Center
03:53PM 39.5181 -91.3281 45° Northeast 393 452 23,000 1,500 Climbing Kansas City Center
03:54PM 39.5983 -91.2233 45° Northeast 403 464 24,600 1,500 Climbing Kansas City Center
03:55PM 39.6797 -91.1189 45° Northeast 407 468 26,100 1,140 Climbing Kansas City Center
03:56PM 39.7675 -91.0194 41° Northeast 411 473 27,000 420 Climbing Kansas City Center
03:57PM 39.8628 -90.9269 37° Northeast 425 489 27,000  Level Kansas City Center
03:58PM 39.9819 -90.8053 38° Northeast 443 510 27,000  Level Kansas City Center
03:59PM 40.0839 -90.7017 38° Northeast 456 525 27,000  Level Kansas City Center
04:00PM 40.1647 -90.6214 37° Northeast 464 534 27,000  Level Chicago Center
04:01PM 40.2678 -90.5161 38° Northeast 462 532 27,000  Level Chicago Center
04:02PM 40.3700 -90.4117 38° Northeast 463 533 27,000  Level Chicago Center
04:03PM 40.4719 -90.3069 38° Northeast 463 533 27,000  Level Chicago Center
04:04PM 40.5836 -90.1917 38° Northeast 463 533 27,000  Level Chicago Center
04:05PM 40.6850 -90.0867 38° Northeast 464 534 27,000 -420 Level Chicago Center
04:06PM 40.7878 -89.9819 38° Northeast 469 540 26,200 -840 Descending Chicago Center
04:07PM 40.8869 -89.8756 39° Northeast 463 533 25,300 -960 Descending Chicago Center
04:08PM 40.9847 -89.7728 38° Northeast 453 521 24,300 -660 Descending Chicago Center
04:09PM 41.1028 -89.6486 38° Northeast 455 524 24,000 -180 Descending Chicago Center
04:10PM 41.1869 -89.5247 48° Northeast 462 532 24,000 -900 Level Chicago Center
04:11PM 41.2475 -89.3761 62° Northeast 458 527 22,200 -2,340 Descending Chicago Center
04:12PM 41.3058 -89.2303 62° Northeast 446 513 19,200 -2,760 Descending Chicago Center
04:13PM 41.3581 -89.0956 63° Northeast 425 489 16,500 -2,760 Descending Chicago Center
04:14PM 41.4192 -88.9422 62° Northeast 391 450 13,500 -2,460 Descending Chicago Center
04:15PM 41.4683 -88.8164 62° Northeast 384 442 11,500 -1,260 Descending Chicago Center
04:16PM 41.5181 -88.6922 62° Northeast 381 438 11,000 -300 Descending Chicago Center
04:17PM 41.5686 -88.5636 62° Northeast 388 447 11,000  Level Chicago Center
04:18PM 41.6222 -88.4369 60° Northeast 390 449 11,000 -240 Level Chicago Center
04:19PM 41.6872 -88.3300 51° Northeast 365 420 10,600 -1,020 Descending Chicago Center
04:20PM 41.7522 -88.2203 52° Northeast 313 360 8,900 -1,680 Descending Chicago Center
04:21PM 41.8036 -88.1322 52° Northeast 301 346 7,200 -960 Descending Chicago Center
04:22PM 41.8758 -88.1303 North 284 327 7,000 -120 Descending Chicago Center
04:23PM 41.9497 -88.1581 344° North 280 322 7,000 -300 Level Chicago Center
04:24PM 42.0133 -88.1519 North 238 274 6,400 -960 Descending Chicago Center
04:25PM 42.0719 -88.1506 North 217 250 5,100 -1,440 Descending Chicago Center
04:26PM 42.1167 -88.1167 29° Northeast 211 243 4,000 -1,260 Descending Chicago TRACON
04:27PM 42.1000 -88.0500 109° East 186 214 3,000 -780 Descending Chicago TRACON
04:28PM 42.0667 -88.0167 143° Southeast 182 209 2,600 -660 Descending Chicago TRACON
04:29PM 42.0333 -87.9833 143° Southeast 148 170 1,800 -780 Descending Chicago TRACON
04:30PM 42.0000 -87.9500 143° Southeast 134 154 1,100 -720 Descending Chicago TRACON
04:32PM 41.9817 -87.9067 140° Southeast  Level Estimated